सभी
Fairy Bower Airport YFBR मौसम
There is no TAF data available at YFBR or any nearby airports.
There is no METAR data available at YFBR. Showing METAR data for YCNM (10 mi SE).
Recent CNB METAR history (no data for YFBR)
| Date | Time (AEST) | Flight Rules | Wind Dir. | Speed | Type | Height AGL (ft) | Visibility | Temp (°C) | Temp (°F) | Dew Point (°C) | Dew Point (°F) | Rel. Humid. | Pressure | Density Altitude | Remarks |
|---|---|---|---|---|---|---|---|---|---|---|---|---|---|---|---|
| 03-मई | 13:00 | n/a | 20° | 13 kt | Missing | 27° | 80° | 13° | 55° | 42% | 1018 mb | 1,902 ft | |||
| 03-मई | 12:00 | n/a | 360° | 13 kt | Missing | 25° | 77° | 12° | 53° | 44% | 1019 mb | 1,633 ft | |||
| 03-मई | 11:00 | n/a | 10° | 16 kt | Missing | 23° | 73° | 12° | 53° | 50% | 1020 mb | 1,363 ft | |||
| 03-मई | 10:00 | n/a | 20° | 15 kt | Missing | 23° | 73° | 12° | 53° | 50% | 1021 mb | 1,334 ft | |||
| 03-मई | 09:00 | n/a | 30° | 13 kt | Missing | 21° | 69° | 12° | 53° | 56% | 1021 mb | 1,094 ft | |||
| 03-मई | 08:00 | n/a | 40° | 9 kt | Missing | 19° | 66° | 11° | 51° | 60% | 1021 mb | 854 ft | |||
| 03-मई | 07:00 | n/a | 50° | 6 kt | Missing | 16° | 60° | 9° | 48° | 63% | 1020 mb | 523 ft | |||
| 03-मई | 06:00 | n/a | 60° | 7 kt | Missing | 16° | 60° | 9° | 48° | 63% | 1020 mb | 523 ft | |||
| 03-मई | 05:00 | n/a | 50° | 6 kt | Missing | 17° | 62° | 10° | 50° | 63% | 1019 mb | 673 ft | |||
| 03-मई | 04:00 | n/a | 60° | 7 kt | Missing | 18° | 64° | 10° | 50° | 59% | 1019 mb | 793 ft | |||
| 03-मई | 03:00 | n/a | 40° | 8 kt | Missing | 20° | 68° | 10° | 50° | 53% | 1019 mb | 1,033 ft | |||
| 03-मई | 02:00 | n/a | 30° | 11 kt | Missing | 21° | 69° | 10° | 50° | 49% | 1019 mb | 1,153 ft | |||
| 03-मई | 01:00 | n/a | 30° | 11 kt | Missing | 21° | 69° | 10° | 50° | 49% | 1019 mb | 1,153 ft | |||
| 03-मई | 00:00 | n/a | 60° | 7 kt | Missing | 20° | 68° | 9° | 48° | 49% | 1019 mb | 1,033 ft | |||
| 02-मई | 23:00 | n/a | 70° | 7 kt | Missing | 19° | 66° | 9° | 48° | 52% | 1019 mb | 913 ft | |||
| 02-मई | 22:00 | n/a | 70° | 7 kt | Missing | 19° | 66° | 9° | 48° | 52% | 1019 mb | 913 ft | |||
| 02-मई | 21:00 | n/a | 50° | 7 kt | Missing | 19° | 66° | 10° | 50° | 56% | 1019 mb | 913 ft | |||
| 02-मई | 20:00 | n/a | 50° | 6 kt | Missing | 21° | 69° | 11° | 51° | 53% | 1019 mb | 1,153 ft | |||
| 02-मई | 19:00 | n/a | 60° | 5 kt | Missing | 22° | 71° | 11° | 51° | 50% | 1019 mb | 1,273 ft | |||
| 02-मई | 18:00 | n/a | 30° | 5 kt | Missing | 23° | 73° | 11° | 51° | 47% | 1019 mb | 1,393 ft | |||
| 02-मई | 17:00 | n/a | 30° | 6 kt | Missing | 26° | 78° | 12° | 53° | 42% | 1018 mb | 1,782 ft | |||
| 02-मई | 16:00 | n/a | 30° | 7 kt | Missing | 27° | 80° | 12° | 53° | 39% | 1018 mb | 1,902 ft | |||
| 02-मई | 15:00 | n/a | 30° | 10 kt | Missing | 26° | 78° | 13° | 55° | 45% | 1019 mb | 1,753 ft | |||
| 02-मई | 14:00 | n/a | 20° | 11 kt | Missing | 26° | 78° | 13° | 55° | 45% | 1019 mb | 1,753 ft |
लॉगिन
| Your browser is unsupported. अपना ब्राऊजर अपग्रेड करें |
